sensor_id;sensor_type;location;lat;lon;timestamp;P1;durP1;ratioP1;P2;durP2;ratioP2
27802;SDS011;15182;48.174;11.562;2024-02-23T00:01:43;2.27;;;2.27;;
27802;SDS011;15182;48.174;11.562;2024-02-23T00:04:11;2.10;;;2.10;;
27802;SDS011;15182;48.174;11.562;2024-02-23T00:06:39;2.80;;;2.80;;
27802;SDS011;15182;48.174;11.562;2024-02-23T00:09:07;2.40;;;2.40;;
27802;SDS011;15182;48.174;11.562;2024-02-23T00:11:34;2.40;;;2.30;;
27802;SDS011;15182;48.174;11.562;2024-02-23T00:14:06;2.03;;;2.03;;
27802;SDS011;15182;48.174;11.562;2024-02-23T00:16:37;2.33;;;2.33;;
27802;SDS011;15182;48.174;11.562;2024-02-23T00:19:07;2.33;;;2.33;;
27802;SDS011;15182;48.174;11.562;2024-02-23T00:21:35;2.27;;;2.27;;
27802;SDS011;15182;48.174;11.562;2024-02-23T00:24:04;2.43;;;2.43;;
27802;SDS011;15182;48.174;11.562;2024-02-23T00:26:32;2.23;;;2.23;;
27802;SDS011;15182;48.174;11.562;2024-02-23T00:28:59;2.20;;;2.20;;
27802;SDS011;15182;48.174;11.562;2024-02-23T00:31:30;2.20;;;2.20;;
27802;SDS011;15182;48.174;11.562;2024-02-23T00:33:58;2.70;;;2.70;;
27802;SDS011;15182;48.174;11.562;2024-02-23T00:36:26;2.10;;;2.10;;
27802;SDS011;15182;48.174;11.562;2024-02-23T00:38:54;2.23;;;2.23;;
27802;SDS011;15182;48.174;11.562;2024-02-23T00:41:22;2.17;;;2.17;;
27802;SDS011;15182;48.174;11.562;2024-02-23T00:43:50;2.00;;;2.00;;
27802;SDS011;15182;48.174;11.562;2024-02-23T00:46:18;1.93;;;1.93;;
27802;SDS011;15182;48.174;11.562;2024-02-23T00:48:47;2.37;;;2.37;;
27802;SDS011;15182;48.174;11.562;2024-02-23T00:51:14;2.00;;;2.00;;
27802;SDS011;15182;48.174;11.562;2024-02-23T00:53:42;2.00;;;2.00;;
27802;SDS011;15182;48.174;11.562;2024-02-23T00:56:10;2.20;;;2.20;;
27802;SDS011;15182;48.174;11.562;2024-02-23T00:58:38;2.20;;;2.20;;
27802;SDS011;15182;48.174;11.562;2024-02-23T01:01:06;2.10;;;2.10;;
27802;SDS011;15182;48.174;11.562;2024-02-23T01:03:34;2.43;;;2.43;;
27802;SDS011;15182;48.174;11.562;2024-02-23T01:06:03;2.43;;;2.33;;
27802;SDS011;15182;48.174;11.562;2024-02-23T01:08:31;2.43;;;2.43;;
27802;SDS011;15182;48.174;11.562;2024-02-23T01:10:59;2.33;;;2.33;;
27802;SDS011;15182;48.174;11.562;2024-02-23T01:13:27;2.20;;;2.20;;
27802;SDS011;15182;48.174;11.562;2024-02-23T01:15:54;2.70;;;2.63;;
27802;SDS011;15182;48.174;11.562;2024-02-23T01:18:22;2.30;;;2.30;;
27802;SDS011;15182;48.174;11.562;2024-02-23T01:20:50;2.40;;;2.40;;
27802;SDS011;15182;48.174;11.562;2024-02-23T01:23:19;2.57;;;2.57;;
27802;SDS011;15182;48.174;11.562;2024-02-23T01:25:47;2.10;;;2.10;;
27802;SDS011;15182;48.174;11.562;2024-02-23T01:28:15;2.20;;;2.20;;
27802;SDS011;15182;48.174;11.562;2024-02-23T01:30:43;2.77;;;2.77;;
27802;SDS011;15182;48.174;11.562;2024-02-23T01:33:10;2.63;;;2.63;;
27802;SDS011;15182;48.174;11.562;2024-02-23T01:35:38;2.57;;;2.57;;
27802;SDS011;15182;48.174;11.562;2024-02-23T01:38:06;2.80;;;2.70;;
27802;SDS011;15182;48.174;11.562;2024-02-23T01:40:35;2.67;;;2.67;;
27802;SDS011;15182;48.174;11.562;2024-02-23T01:43:02;2.10;;;2.10;;
27802;SDS011;15182;48.174;11.562;2024-02-23T01:45:31;2.37;;;2.37;;
27802;SDS011;15182;48.174;11.562;2024-02-23T01:47:59;2.43;;;2.43;;
27802;SDS011;15182;48.174;11.562;2024-02-23T01:50:28;2.40;;;2.40;;
27802;SDS011;15182;48.174;11.562;2024-02-23T01:52:58;2.70;;;2.67;;
27802;SDS011;15182;48.174;11.562;2024-02-23T01:55:29;2.67;;;2.67;;
27802;SDS011;15182;48.174;11.562;2024-02-23T01:57:59;2.50;;;2.50;;
27802;SDS011;15182;48.174;11.562;2024-02-23T02:00:28;2.63;;;2.63;;
27802;SDS011;15182;48.174;11.562;2024-02-23T02:02:57;2.50;;;2.50;;
27802;SDS011;15182;48.174;11.562;2024-02-23T02:05:25;2.73;;;2.60;;
27802;SDS011;15182;48.174;11.562;2024-02-23T02:07:55;2.60;;;2.60;;
27802;SDS011;15182;48.174;11.562;2024-02-23T02:10:25;2.20;;;2.20;;
27802;SDS011;15182;48.174;11.562;2024-02-23T02:12:53;2.40;;;2.40;;
27802;SDS011;15182;48.174;11.562;2024-02-23T02:15:22;2.43;;;2.43;;
27802;SDS011;15182;48.174;11.562;2024-02-23T02:17:50;2.67;;;2.67;;
27802;SDS011;15182;48.174;11.562;2024-02-23T02:20:17;2.50;;;2.50;;
27802;SDS011;15182;48.174;11.562;2024-02-23T02:22:50;2.33;;;2.33;;
27802;SDS011;15182;48.174;11.562;2024-02-23T02:25:18;2.50;;;2.50;;
27802;SDS011;15182;48.174;11.562;2024-02-23T02:27:46;2.40;;;2.40;;
27802;SDS011;15182;48.174;11.562;2024-02-23T02:30:14;2.43;;;2.43;;
27802;SDS011;15182;48.174;11.562;2024-02-23T02:32:43;2.13;;;2.13;;
27802;SDS011;15182;48.174;11.562;2024-02-23T02:35:11;2.90;;;2.90;;
27802;SDS011;15182;48.174;11.562;2024-02-23T02:37:39;2.60;;;2.60;;
27802;SDS011;15182;48.174;11.562;2024-02-23T02:40:07;2.67;;;2.67;;
27802;SDS011;15182;48.174;11.562;2024-02-23T02:42:35;2.50;;;2.50;;
27802;SDS011;15182;48.174;11.562;2024-02-23T02:45:04;2.30;;;2.30;;
27802;SDS011;15182;48.174;11.562;2024-02-23T02:47:32;2.57;;;2.57;;
27802;SDS011;15182;48.174;11.562;2024-02-23T02:50:03;2.37;;;2.37;;
27802;SDS011;15182;48.174;11.562;2024-02-23T02:52:33;2.60;;;2.60;;
27802;SDS011;15182;48.174;11.562;2024-02-23T02:55:00;2.57;;;2.57;;
27802;SDS011;15182;48.174;11.562;2024-02-23T02:57:28;2.40;;;2.40;;
27802;SDS011;15182;48.174;11.562;2024-02-23T02:59:56;2.93;;;2.93;;
27802;SDS011;15182;48.174;11.562;2024-02-23T03:02:24;2.80;;;2.80;;
27802;SDS011;15182;48.174;11.562;2024-02-23T03:04:52;2.53;;;2.53;;
27802;SDS011;15182;48.174;11.562;2024-02-23T03:07:22;2.70;;;2.70;;
27802;SDS011;15182;48.174;11.562;2024-02-23T03:09:50;2.73;;;2.73;;
27802;SDS011;15182;48.174;11.562;2024-02-23T03:12:18;2.60;;;2.60;;
27802;SDS011;15182;48.174;11.562;2024-02-23T03:14:46;2.40;;;2.40;;
27802;SDS011;15182;48.174;11.562;2024-02-23T03:17:14;2.83;;;2.80;;
27802;SDS011;15182;48.174;11.562;2024-02-23T03:19:41;2.80;;;2.80;;
27802;SDS011;15182;48.174;11.562;2024-02-23T03:22:09;2.70;;;2.70;;
27802;SDS011;15182;48.174;11.562;2024-02-23T03:24:39;2.70;;;2.60;;
27802;SDS011;15182;48.174;11.562;2024-02-23T03:27:07;2.40;;;2.40;;
27802;SDS011;15182;48.174;11.562;2024-02-23T03:29:35;2.43;;;2.43;;
27802;SDS011;15182;48.174;11.562;2024-02-23T03:32:04;2.70;;;2.70;;
27802;SDS011;15182;48.174;11.562;2024-02-23T03:34:33;2.70;;;2.63;;
27802;SDS011;15182;48.174;11.562;2024-02-23T03:37:02;2.63;;;2.63;;
27802;SDS011;15182;48.174;11.562;2024-02-23T03:39:30;2.67;;;2.67;;
27802;SDS011;15182;48.174;11.562;2024-02-23T03:41:59;2.50;;;2.50;;
27802;SDS011;15182;48.174;11.562;2024-02-23T03:44:27;2.60;;;2.60;;
27802;SDS011;15182;48.174;11.562;2024-02-23T03:46:55;2.83;;;2.83;;
27802;SDS011;15182;48.174;11.562;2024-02-23T03:49:23;2.40;;;2.40;;
27802;SDS011;15182;48.174;11.562;2024-02-23T03:51:51;2.67;;;2.67;;
27802;SDS011;15182;48.174;11.562;2024-02-23T03:54:18;2.80;;;2.80;;
27802;SDS011;15182;48.174;11.562;2024-02-23T03:56:46;2.40;;;2.40;;
27802;SDS011;15182;48.174;11.562;2024-02-23T03:59:16;2.67;;;2.67;;
27802;SDS011;15182;48.174;11.562;2024-02-23T04:01:44;2.47;;;2.47;;
27802;SDS011;15182;48.174;11.562;2024-02-23T04:04:11;2.80;;;2.60;;
27802;SDS011;15182;48.174;11.562;2024-02-23T04:06:39;2.73;;;2.70;;
27802;SDS011;15182;48.174;11.562;2024-02-23T04:09:07;2.60;;;2.60;;
27802;SDS011;15182;48.174;11.562;2024-02-23T04:11:35;2.90;;;2.90;;
27802;SDS011;15182;48.174;11.562;2024-02-23T04:14:02;2.60;;;2.60;;
27802;SDS011;15182;48.174;11.562;2024-02-23T04:16:33;2.87;;;2.70;;
27802;SDS011;15182;48.174;11.562;2024-02-23T04:19:01;2.30;;;2.30;;
27802;SDS011;15182;48.174;11.562;2024-02-23T04:21:28;2.70;;;2.70;;
27802;SDS011;15182;48.174;11.562;2024-02-23T04:23:56;2.53;;;2.53;;
27802;SDS011;15182;48.174;11.562;2024-02-23T04:26:24;2.90;;;2.90;;
27802;SDS011;15182;48.174;11.562;2024-02-23T04:28:52;2.70;;;2.70;;
27802;SDS011;15182;48.174;11.562;2024-02-23T04:31:20;2.63;;;2.63;;
27802;SDS011;15182;48.174;11.562;2024-02-23T04:33:49;2.60;;;2.60;;
27802;SDS011;15182;48.174;11.562;2024-02-23T04:36:18;2.50;;;2.50;;
27802;SDS011;15182;48.174;11.562;2024-02-23T04:38:47;3.00;;;3.00;;
27802;SDS011;15182;48.174;11.562;2024-02-23T04:41:18;2.43;;;2.43;;
27802;SDS011;15182;48.174;11.562;2024-02-23T04:43:48;2.60;;;2.60;;
27802;SDS011;15182;48.174;11.562;2024-02-23T04:46:16;2.80;;;2.80;;
27802;SDS011;15182;48.174;11.562;2024-02-23T04:48:44;2.47;;;2.47;;
27802;SDS011;15182;48.174;11.562;2024-02-23T04:51:13;2.47;;;2.47;;
27802;SDS011;15182;48.174;11.562;2024-02-23T04:53:41;2.63;;;2.63;;
27802;SDS011;15182;48.174;11.562;2024-02-23T04:56:08;2.90;;;2.90;;
27802;SDS011;15182;48.174;11.562;2024-02-23T04:58:36;2.90;;;2.90;;
27802;SDS011;15182;48.174;11.562;2024-02-23T05:01:04;3.07;;;3.03;;
27802;SDS011;15182;48.174;11.562;2024-02-23T05:03:32;2.63;;;2.63;;
27802;SDS011;15182;48.174;11.562;2024-02-23T05:06:00;2.67;;;2.67;;
27802;SDS011;15182;48.174;11.562;2024-02-23T05:08:30;2.60;;;2.60;;
27802;SDS011;15182;48.174;11.562;2024-02-23T05:10:58;2.80;;;2.80;;
27802;SDS011;15182;48.174;11.562;2024-02-23T05:13:26;2.97;;;2.97;;
27802;SDS011;15182;48.174;11.562;2024-02-23T05:15:54;2.70;;;2.70;;
27802;SDS011;15182;48.174;11.562;2024-02-23T05:18:23;2.80;;;2.77;;
27802;SDS011;15182;48.174;11.562;2024-02-23T05:20:52;2.80;;;2.80;;
27802;SDS011;15182;48.174;11.562;2024-02-23T05:23:19;2.60;;;2.60;;
27802;SDS011;15182;48.174;11.562;2024-02-23T05:25:49;2.53;;;2.53;;
27802;SDS011;15182;48.174;11.562;2024-02-23T05:28:16;3.20;;;3.07;;
27802;SDS011;15182;48.174;11.562;2024-02-23T05:30:44;2.60;;;2.60;;
27802;SDS011;15182;48.174;11.562;2024-02-23T05:33:12;3.13;;;3.13;;
27802;SDS011;15182;48.174;11.562;2024-02-23T05:35:40;2.90;;;2.90;;
27802;SDS011;15182;48.174;11.562;2024-02-23T05:38:07;2.50;;;2.50;;
27802;SDS011;15182;48.174;11.562;2024-02-23T05:40:35;2.83;;;2.83;;
27802;SDS011;15182;48.174;11.562;2024-02-23T05:43:04;2.90;;;2.90;;
27802;SDS011;15182;48.174;11.562;2024-02-23T05:45:32;3.07;;;2.97;;
27802;SDS011;15182;48.174;11.562;2024-02-23T05:48:00;2.77;;;2.77;;
27802;SDS011;15182;48.174;11.562;2024-02-23T05:50:28;2.73;;;2.73;;
27802;SDS011;15182;48.174;11.562;2024-02-23T05:52:57;2.80;;;2.80;;
27802;SDS011;15182;48.174;11.562;2024-02-23T05:55:25;2.93;;;2.93;;
27802;SDS011;15182;48.174;11.562;2024-02-23T05:57:53;2.90;;;2.90;;
27802;SDS011;15182;48.174;11.562;2024-02-23T06:00:22;2.40;;;2.40;;
27802;SDS011;15182;48.174;11.562;2024-02-23T06:02:51;3.03;;;2.93;;
27802;SDS011;15182;48.174;11.562;2024-02-23T06:05:18;3.13;;;3.13;;
27802;SDS011;15182;48.174;11.562;2024-02-23T06:07:46;2.90;;;2.90;;
27802;SDS011;15182;48.174;11.562;2024-02-23T06:10:14;2.93;;;2.93;;
27802;SDS011;15182;48.174;11.562;2024-02-23T06:12:42;2.73;;;2.73;;
27802;SDS011;15182;48.174;11.562;2024-02-23T06:15:10;2.60;;;2.60;;
27802;SDS011;15182;48.174;11.562;2024-02-23T06:17:39;2.80;;;2.80;;
27802;SDS011;15182;48.174;11.562;2024-02-23T06:20:08;2.90;;;2.90;;
27802;SDS011;15182;48.174;11.562;2024-02-23T06:22:37;2.63;;;2.63;;
27802;SDS011;15182;48.174;11.562;2024-02-23T06:25:05;2.67;;;2.63;;
27802;SDS011;15182;48.174;11.562;2024-02-23T06:27:33;2.70;;;2.70;;
27802;SDS011;15182;48.174;11.562;2024-02-23T06:30:01;3.23;;;3.23;;
27802;SDS011;15182;48.174;11.562;2024-02-23T06:32:29;2.53;;;2.53;;
27802;SDS011;15182;48.174;11.562;2024-02-23T06:34:58;2.87;;;2.87;;
27802;SDS011;15182;48.174;11.562;2024-02-23T06:37:26;2.80;;;2.80;;
27802;SDS011;15182;48.174;11.562;2024-02-23T06:39:53;3.10;;;3.00;;
27802;SDS011;15182;48.174;11.562;2024-02-23T06:42:21;2.50;;;2.50;;
27802;SDS011;15182;48.174;11.562;2024-02-23T06:44:49;2.97;;;2.87;;
27802;SDS011;15182;48.174;11.562;2024-02-23T06:47:17;2.90;;;2.90;;
27802;SDS011;15182;48.174;11.562;2024-02-23T06:49:46;2.93;;;2.73;;
27802;SDS011;15182;48.174;11.562;2024-02-23T06:52:16;2.53;;;2.53;;
27802;SDS011;15182;48.174;11.562;2024-02-23T06:54:44;2.83;;;2.83;;
27802;SDS011;15182;48.174;11.562;2024-02-23T06:57:12;2.83;;;2.83;;
27802;SDS011;15182;48.174;11.562;2024-02-23T06:59:39;2.63;;;2.63;;
27802;SDS011;15182;48.174;11.562;2024-02-23T07:02:07;3.20;;;3.20;;
27802;SDS011;15182;48.174;11.562;2024-02-23T07:04:35;2.90;;;2.90;;
27802;SDS011;15182;48.174;11.562;2024-02-23T07:07:03;3.13;;;3.13;;
27802;SDS011;15182;48.174;11.562;2024-02-23T07:09:34;2.93;;;2.83;;
27802;SDS011;15182;48.174;11.562;2024-02-23T07:12:02;2.80;;;2.80;;
27802;SDS011;15182;48.174;11.562;2024-02-23T07:14:31;2.97;;;2.97;;
27802;SDS011;15182;48.174;11.562;2024-02-23T07:16:59;2.97;;;2.97;;
27802;SDS011;15182;48.174;11.562;2024-02-23T07:19:27;3.27;;;3.17;;
27802;SDS011;15182;48.174;11.562;2024-02-23T07:21:55;3.00;;;3.00;;
27802;SDS011;15182;48.174;11.562;2024-02-23T07:24:23;2.97;;;2.97;;
27802;SDS011;15182;48.174;11.562;2024-02-23T07:26:52;3.00;;;3.00;;
27802;SDS011;15182;48.174;11.562;2024-02-23T07:29:20;3.07;;;2.97;;
27802;SDS011;15182;48.174;11.562;2024-02-23T07:31:48;2.90;;;2.80;;
27802;SDS011;15182;48.174;11.562;2024-02-23T07:34:15;2.90;;;2.90;;
27802;SDS011;15182;48.174;11.562;2024-02-23T07:36:43;3.17;;;3.17;;
27802;SDS011;15182;48.174;11.562;2024-02-23T07:39:11;3.00;;;3.00;;
27802;SDS011;15182;48.174;11.562;2024-02-23T07:41:39;2.90;;;2.90;;
27802;SDS011;15182;48.174;11.562;2024-02-23T07:44:08;3.10;;;3.00;;
27802;SDS011;15182;48.174;11.562;2024-02-23T07:46:37;3.17;;;3.07;;
27802;SDS011;15182;48.174;11.562;2024-02-23T07:49:05;3.60;;;3.40;;
27802;SDS011;15182;48.174;11.562;2024-02-23T07:51:33;3.17;;;3.07;;
27802;SDS011;15182;48.174;11.562;2024-02-23T07:54:01;2.70;;;2.70;;
27802;SDS011;15182;48.174;11.562;2024-02-23T07:56:29;2.50;;;2.50;;
27802;SDS011;15182;48.174;11.562;2024-02-23T07:58:57;2.73;;;2.73;;
27802;SDS011;15182;48.174;11.562;2024-02-23T08:01:26;3.37;;;3.10;;
27802;SDS011;15182;48.174;11.562;2024-02-23T08:03:54;2.73;;;2.63;;
27802;SDS011;15182;48.174;11.562;2024-02-23T08:06:22;2.70;;;2.70;;
27802;SDS011;15182;48.174;11.562;2024-02-23T08:08:50;3.00;;;2.90;;
27802;SDS011;15182;48.174;11.562;2024-02-23T08:11:19;2.70;;;2.70;;
27802;SDS011;15182;48.174;11.562;2024-02-23T08:13:47;2.70;;;2.70;;
27802;SDS011;15182;48.174;11.562;2024-02-23T08:16:15;2.67;;;2.67;;
27802;SDS011;15182;48.174;11.562;2024-02-23T08:18:44;3.40;;;3.23;;
27802;SDS011;15182;48.174;11.562;2024-02-23T08:21:12;3.37;;;3.30;;
27802;SDS011;15182;48.174;11.562;2024-02-23T08:23:40;3.27;;;3.17;;
27802;SDS011;15182;48.174;11.562;2024-02-23T08:26:08;3.10;;;3.00;;
27802;SDS011;15182;48.174;11.562;2024-02-23T08:28:36;3.20;;;3.10;;
27802;SDS011;15182;48.174;11.562;2024-02-23T08:31:04;3.00;;;2.80;;
27802;SDS011;15182;48.174;11.562;2024-02-23T08:33:32;3.30;;;3.10;;
27802;SDS011;15182;48.174;11.562;2024-02-23T08:36:01;3.10;;;3.00;;
27802;SDS011;15182;48.174;11.562;2024-02-23T08:38:31;2.87;;;2.87;;
27802;SDS011;15182;48.174;11.562;2024-02-23T08:40:59;2.93;;;2.73;;
27802;SDS011;15182;48.174;11.562;2024-02-23T08:43:27;2.87;;;2.87;;
27802;SDS011;15182;48.174;11.562;2024-02-23T08:45:55;2.90;;;2.80;;
27802;SDS011;15182;48.174;11.562;2024-02-23T08:48:22;3.43;;;3.40;;
27802;SDS011;15182;48.174;11.562;2024-02-23T08:50:50;2.93;;;2.83;;
27802;SDS011;15182;48.174;11.562;2024-02-23T08:53:19;3.47;;;3.37;;
27802;SDS011;15182;48.174;11.562;2024-02-23T08:55:47;2.77;;;2.73;;
27802;SDS011;15182;48.174;11.562;2024-02-23T08:58:15;3.17;;;2.97;;
27802;SDS011;15182;48.174;11.562;2024-02-23T09:00:43;3.27;;;3.17;;
27802;SDS011;15182;48.174;11.562;2024-02-23T09:03:11;3.50;;;3.20;;
27802;SDS011;15182;48.174;11.562;2024-02-23T09:05:40;3.23;;;3.23;;
27802;SDS011;15182;48.174;11.562;2024-02-23T09:08:07;3.00;;;2.90;;
27802;SDS011;15182;48.174;11.562;2024-02-23T09:10:37;3.53;;;3.23;;
27802;SDS011;15182;48.174;11.562;2024-02-23T09:13:05;2.90;;;2.90;;
27802;SDS011;15182;48.174;11.562;2024-02-23T09:15:32;2.87;;;2.87;;
27802;SDS011;15182;48.174;11.562;2024-02-23T09:18:00;2.90;;;2.90;;
27802;SDS011;15182;48.174;11.562;2024-02-23T09:20:28;3.07;;;2.97;;
27802;SDS011;15182;48.174;11.562;2024-02-23T09:22:56;2.83;;;2.77;;
27802;SDS011;15182;48.174;11.562;2024-02-23T09:25:23;2.90;;;2.90;;
27802;SDS011;15182;48.174;11.562;2024-02-23T09:27:53;3.00;;;2.90;;
27802;SDS011;15182;48.174;11.562;2024-02-23T09:30:24;2.77;;;2.77;;
27802;SDS011;15182;48.174;11.562;2024-02-23T09:32:52;3.10;;;2.90;;
27802;SDS011;15182;48.174;11.562;2024-02-23T09:35:20;2.97;;;2.80;;
27802;SDS011;15182;48.174;11.562;2024-02-23T09:37:48;3.17;;;3.03;;
27802;SDS011;15182;48.174;11.562;2024-02-23T09:40:16;2.77;;;2.77;;
27802;SDS011;15182;48.174;11.562;2024-02-23T09:42:46;2.77;;;2.67;;
27802;SDS011;15182;48.174;11.562;2024-02-23T09:45:24;3.53;;;3.43;;
27802;SDS011;15182;48.174;11.562;2024-02-23T09:47:53;2.90;;;2.90;;
27802;SDS011;15182;48.174;11.562;2024-02-23T09:50:23;3.13;;;3.00;;
27802;SDS011;15182;48.174;11.562;2024-02-23T09:52:51;3.27;;;3.07;;
27802;SDS011;15182;48.174;11.562;2024-02-23T09:55:20;3.00;;;2.80;;
27802;SDS011;15182;48.174;11.562;2024-02-23T09:57:50;3.00;;;3.00;;
27802;SDS011;15182;48.174;11.562;2024-02-23T10:00:25;2.90;;;2.90;;
27802;SDS011;15182;48.174;11.562;2024-02-23T10:02:54;2.50;;;2.50;;
27802;SDS011;15182;48.174;11.562;2024-02-23T10:05:23;2.83;;;2.83;;
27802;SDS011;15182;48.174;11.562;2024-02-23T10:07:56;3.33;;;3.23;;
27802;SDS011;15182;48.174;11.562;2024-02-23T10:10:29;2.90;;;2.90;;
27802;SDS011;15182;48.174;11.562;2024-02-23T10:12:59;3.53;;;3.23;;
27802;SDS011;15182;48.174;11.562;2024-02-23T10:15:28;3.17;;;3.07;;
27802;SDS011;15182;48.174;11.562;2024-02-23T10:17:57;4.20;;;3.13;;
27802;SDS011;15182;48.174;11.562;2024-02-23T10:20:25;3.00;;;3.00;;
27802;SDS011;15182;48.174;11.562;2024-02-23T10:22:53;3.37;;;3.17;;
27802;SDS011;15182;48.174;11.562;2024-02-23T10:25:21;2.80;;;2.70;;
27802;SDS011;15182;48.174;11.562;2024-02-23T10:27:49;3.07;;;2.97;;
27802;SDS011;15182;48.174;11.562;2024-02-23T10:30:18;2.97;;;2.97;;
27802;SDS011;15182;48.174;11.562;2024-02-23T10:32:46;3.10;;;3.00;;
27802;SDS011;15182;48.174;11.562;2024-02-23T10:35:15;3.03;;;3.03;;
27802;SDS011;15182;48.174;11.562;2024-02-23T10:37:43;3.30;;;3.20;;
27802;SDS011;15182;48.174;11.562;2024-02-23T10:40:12;2.70;;;2.70;;
27802;SDS011;15182;48.174;11.562;2024-02-23T10:42:40;3.07;;;3.07;;
27802;SDS011;15182;48.174;11.562;2024-02-23T10:45:14;3.03;;;2.87;;
27802;SDS011;15182;48.174;11.562;2024-02-23T10:47:44;2.83;;;2.83;;
27802;SDS011;15182;48.174;11.562;2024-02-23T10:50:13;3.10;;;2.93;;
27802;SDS011;15182;48.174;11.562;2024-02-23T10:52:42;2.90;;;2.80;;
27802;SDS011;15182;48.174;11.562;2024-02-23T10:55:10;3.07;;;3.07;;
27802;SDS011;15182;48.174;11.562;2024-02-23T10:57:38;2.87;;;2.87;;
27802;SDS011;15182;48.174;11.562;2024-02-23T11:00:06;3.87;;;3.37;;
27802;SDS011;15182;48.174;11.562;2024-02-23T11:02:36;3.10;;;3.10;;
27802;SDS011;15182;48.174;11.562;2024-02-23T11:05:09;3.40;;;3.30;;
27802;SDS011;15182;48.174;11.562;2024-02-23T11:07:39;3.27;;;3.17;;
27802;SDS011;15182;48.174;11.562;2024-02-23T11:10:07;2.93;;;2.93;;
27802;SDS011;15182;48.174;11.562;2024-02-23T11:12:35;3.03;;;3.03;;
27802;SDS011;15182;48.174;11.562;2024-02-23T11:15:04;3.13;;;3.13;;
27802;SDS011;15182;48.174;11.562;2024-02-23T11:17:33;2.57;;;2.57;;
27802;SDS011;15182;48.174;11.562;2024-02-23T11:20:05;3.20;;;3.00;;
27802;SDS011;15182;48.174;11.562;2024-02-23T11:22:36;3.10;;;3.10;;
27802;SDS011;15182;48.174;11.562;2024-02-23T11:25:04;2.73;;;2.73;;
27802;SDS011;15182;48.174;11.562;2024-02-23T11:27:34;2.80;;;2.80;;
27802;SDS011;15182;48.174;11.562;2024-02-23T11:30:03;2.73;;;2.73;;
27802;SDS011;15182;48.174;11.562;2024-02-23T11:32:37;2.70;;;2.70;;
27802;SDS011;15182;48.174;11.562;2024-02-23T11:35:07;5.23;;;3.17;;
27802;SDS011;15182;48.174;11.562;2024-02-23T11:37:45;3.77;;;3.53;;
27802;SDS011;15182;48.174;11.562;2024-02-23T11:40:14;3.43;;;3.23;;
27802;SDS011;15182;48.174;11.562;2024-02-23T11:42:44;3.97;;;3.73;;
27802;SDS011;15182;48.174;11.562;2024-02-23T11:45:11;4.80;;;4.50;;
27802;SDS011;15182;48.174;11.562;2024-02-23T11:47:39;4.03;;;3.80;;
27802;SDS011;15182;48.174;11.562;2024-02-23T11:50:08;4.83;;;3.80;;
27802;SDS011;15182;48.174;11.562;2024-02-23T11:52:37;3.77;;;3.47;;
27802;SDS011;15182;48.174;11.562;2024-02-23T11:55:06;3.60;;;3.50;;
27802;SDS011;15182;48.174;11.562;2024-02-23T11:57:35;4.80;;;4.47;;
27802;SDS011;15182;48.174;11.562;2024-02-23T12:00:04;5.33;;;4.93;;
27802;SDS011;15182;48.174;11.562;2024-02-23T12:02:34;4.03;;;3.90;;
27802;SDS011;15182;48.174;11.562;2024-02-23T12:05:02;3.47;;;3.27;;
27802;SDS011;15182;48.174;11.562;2024-02-23T12:07:31;3.57;;;3.47;;
27802;SDS011;15182;48.174;11.562;2024-02-23T12:10:00;3.10;;;3.00;;
27802;SDS011;15182;48.174;11.562;2024-02-23T12:12:31;2.87;;;2.87;;
27802;SDS011;15182;48.174;11.562;2024-02-23T12:14:59;6.27;;;4.40;;
27802;SDS011;15182;48.174;11.562;2024-02-23T12:17:27;3.67;;;3.57;;
27802;SDS011;15182;48.174;11.562;2024-02-23T12:19:57;2.80;;;2.80;;
27802;SDS011;15182;48.174;11.562;2024-02-23T12:22:26;2.80;;;2.80;;
27802;SDS011;15182;48.174;11.562;2024-02-23T12:24:56;3.13;;;3.13;;
27802;SDS011;15182;48.174;11.562;2024-02-23T12:27:25;2.93;;;2.77;;
27802;SDS011;15182;48.174;11.562;2024-02-23T12:29:56;3.13;;;3.03;;
27802;SDS011;15182;48.174;11.562;2024-02-23T12:32:25;2.80;;;2.80;;
27802;SDS011;15182;48.174;11.562;2024-02-23T12:34:53;2.83;;;2.83;;
27802;SDS011;15182;48.174;11.562;2024-02-23T12:37:21;2.50;;;2.50;;
27802;SDS011;15182;48.174;11.562;2024-02-23T12:39:49;2.47;;;2.40;;
27802;SDS011;15182;48.174;11.562;2024-02-23T12:42:17;2.67;;;2.67;;
27802;SDS011;15182;48.174;11.562;2024-02-23T12:44:45;2.50;;;2.50;;
27802;SDS011;15182;48.174;11.562;2024-02-23T12:47:15;2.70;;;2.67;;
27802;SDS011;15182;48.174;11.562;2024-02-23T12:49:43;3.10;;;2.70;;
27802;SDS011;15182;48.174;11.562;2024-02-23T12:52:11;2.73;;;2.73;;
27802;SDS011;15182;48.174;11.562;2024-02-23T12:54:39;3.33;;;3.33;;
27802;SDS011;15182;48.174;11.562;2024-02-23T12:57:07;2.60;;;2.60;;
27802;SDS011;15182;48.174;11.562;2024-02-23T12:59:35;2.90;;;2.73;;
27802;SDS011;15182;48.174;11.562;2024-02-23T13:02:03;2.70;;;2.70;;
27802;SDS011;15182;48.174;11.562;2024-02-23T13:04:36;2.87;;;2.87;;
27802;SDS011;15182;48.174;11.562;2024-02-23T13:07:04;2.83;;;2.67;;
27802;SDS011;15182;48.174;11.562;2024-02-23T13:09:32;2.90;;;2.90;;
27802;SDS011;15182;48.174;11.562;2024-02-23T13:11:59;2.90;;;2.90;;
27802;SDS011;15182;48.174;11.562;2024-02-23T13:14:27;2.77;;;2.77;;
27802;SDS011;15182;48.174;11.562;2024-02-23T13:16:55;2.63;;;2.53;;
27802;SDS011;15182;48.174;11.562;2024-02-23T13:19:23;2.70;;;2.70;;
27802;SDS011;15182;48.174;11.562;2024-02-23T13:21:52;3.33;;;3.07;;
27802;SDS011;15182;48.174;11.562;2024-02-23T13:24:20;2.60;;;2.60;;
27802;SDS011;15182;48.174;11.562;2024-02-23T13:26:47;2.50;;;2.50;;
27802;SDS011;15182;48.174;11.562;2024-02-23T13:29:15;3.00;;;3.00;;
27802;SDS011;15182;48.174;11.562;2024-02-23T13:31:43;2.63;;;2.63;;
27802;SDS011;15182;48.174;11.562;2024-02-23T13:34:11;2.87;;;2.87;;
27802;SDS011;15182;48.174;11.562;2024-02-23T13:36:41;2.93;;;2.90;;
27802;SDS011;15182;48.174;11.562;2024-02-23T13:39:10;2.70;;;2.70;;
27802;SDS011;15182;48.174;11.562;2024-02-23T13:41:38;3.20;;;2.90;;
27802;SDS011;15182;48.174;11.562;2024-02-23T13:44:06;2.70;;;2.70;;
27802;SDS011;15182;48.174;11.562;2024-02-23T13:46:35;2.77;;;2.77;;
27802;SDS011;15182;48.174;11.562;2024-02-23T13:49:05;2.50;;;2.50;;
27802;SDS011;15182;48.174;11.562;2024-02-23T13:51:35;2.80;;;2.80;;
27802;SDS011;15182;48.174;11.562;2024-02-23T13:54:03;2.93;;;2.90;;
27802;SDS011;15182;48.174;11.562;2024-02-23T13:56:32;3.20;;;3.20;;
27802;SDS011;15182;48.174;11.562;2024-02-23T13:59:00;3.13;;;3.03;;
27802;SDS011;15182;48.174;11.562;2024-02-23T14:01:28;2.80;;;2.80;;
27802;SDS011;15182;48.174;11.562;2024-02-23T14:03:56;2.70;;;2.70;;
27802;SDS011;15182;48.174;11.562;2024-02-23T14:06:23;2.60;;;2.60;;
27802;SDS011;15182;48.174;11.562;2024-02-23T14:08:51;2.97;;;2.80;;
27802;SDS011;15182;48.174;11.562;2024-02-23T14:11:19;2.60;;;2.60;;
27802;SDS011;15182;48.174;11.562;2024-02-23T14:13:48;3.10;;;2.90;;
27802;SDS011;15182;48.174;11.562;2024-02-23T14:16:16;2.80;;;2.70;;
27802;SDS011;15182;48.174;11.562;2024-02-23T14:18:44;2.80;;;2.80;;
27802;SDS011;15182;48.174;11.562;2024-02-23T14:21:12;3.10;;;3.00;;
27802;SDS011;15182;48.174;11.562;2024-02-23T14:23:40;2.50;;;2.50;;
27802;SDS011;15182;48.174;11.562;2024-02-23T14:26:08;2.83;;;2.83;;
27802;SDS011;15182;48.174;11.562;2024-02-23T14:28:36;2.80;;;2.80;;
27802;SDS011;15182;48.174;11.562;2024-02-23T14:31:05;2.63;;;2.63;;
27802;SDS011;15182;48.174;11.562;2024-02-23T14:33:33;3.00;;;3.00;;
27802;SDS011;15182;48.174;11.562;2024-02-23T14:36:01;2.60;;;2.60;;
27802;SDS011;15182;48.174;11.562;2024-02-23T14:38:29;3.00;;;3.00;;
27802;SDS011;15182;48.174;11.562;2024-02-23T14:40:57;3.17;;;3.17;;